Time;durP1;ratioP1;P1;durP2;ratioP2;P2;SDS_P1;SDS_P2;PMS_P1;PMS_P2;Temp;Humidity;BMP_temperature;BMP_pressure;BME280_temperature;BME280_humidity;BME280_pressure;Samples;Min_cycle;Max_cycle;Signal;HPM_P1;HPM_P2
2022/01/17 00:00:11;;;;;;;9.10;6.97;;;;;;;0.66;94.90;96841.50;6123031;23;20152;-82
2022/01/17 00:02:37;;;;;;;13.03;8.20;;;;;;;0.66;94.72;96842.31;6073832;23;20160;-81
2022/01/17 00:05:07;;;;;;;10.67;7.43;;;;;;;0.62;95.09;96839.91;6098634;23;20161;-83
2022/01/17 00:07:33;;;;;;;11.07;7.03;;;;;;;0.63;94.91;96851.84;6097843;23;20203;-82
2022/01/17 00:09:58;;;;;;;10.80;6.90;;;;;;;0.66;94.18;96852.53;6098483;23;20243;-82
2022/01/17 00:12:25;;;;;;;11.53;7.10;;;;;;;0.66;94.44;96844.03;6122806;23;20188;-81
2022/01/17 00:14:50;;;;;;;10.73;7.50;;;;;;;0.66;94.49;96844.88;6098618;23;20163;-82
2022/01/17 00:19:44;;;;;;;10.73;7.07;;;;;;;0.62;94.42;96875.72;6079273;23;20487;-82
2022/01/17 00:22:11;;;;;;;10.97;7.40;;;;;;;0.66;94.46;96861.94;6101841;23;20171;-81
2022/01/17 00:24:36;;;;;;;14.50;9.33;;;;;;;0.63;94.78;96870.56;6054602;23;20175;-82
2022/01/17 00:27:02;;;;;;;16.53;10.00;;;;;;;0.44;95.31;96870.38;6128330;23;20233;-83
2022/01/17 00:29:28;;;;;;;17.67;11.93;;;;;;;0.41;96.04;96867.91;6079065;23;20493;-83
2022/01/17 00:31:53;;;;;;;17.07;11.87;;;;;;;0.38;95.74;96869.75;6078535;23;20161;-82
2022/01/17 00:34:18;;;;;;;17.23;11.53;;;;;;;0.37;96.06;96865.53;6127503;23;20245;-81
2022/01/17 00:36:44;;;;;;;20.57;12.50;;;;;;;0.26;96.60;96868.44;6127496;23;20212;-81
2022/01/17 00:39:09;;;;;;;20.87;13.20;;;;;;;0.24;96.86;96876.16;6102412;23;20642;-81
2022/01/17 00:41:35;;;;;;;19.73;13.07;;;;;;;0.20;96.88;96882.28;6128269;23;20156;-81
2022/01/17 00:44:00;;;;;;;20.00;13.63;;;;;;;0.12;97.50;96876.59;6126107;23;20153;-81
2022/01/17 00:46:26;;;;;;;23.87;14.20;;;;;;;0.10;97.15;96883.47;6099388;23;20231;-82
2022/01/17 00:48:51;;;;;;;23.30;14.53;;;;;;;0.08;97.44;96908.22;6125100;23;20200;-80
2022/01/17 00:51:17;;;;;;;19.70;13.50;;;;;;;0.07;97.40;96900.59;6099316;23;20156;-81
2022/01/17 00:53:43;;;;;;;23.83;14.90;;;;;;;0.07;97.30;96900.59;6101560;23;20622;-82
2022/01/17 00:56:08;;;;;;;25.03;15.13;;;;;;;0.02;97.41;96889.72;6076302;23;20486;-82
2022/01/17 00:58:33;;;;;;;23.90;15.37;;;;;;;-0.06;98.08;96892.53;6099018;23;20187;-81
2022/01/17 01:00:59;;;;;;;25.63;15.20;;;;;;;-0.09;97.98;96890.06;6052257;23;20464;-81
2022/01/17 01:03:24;;;;;;;23.00;15.90;;;;;;;-0.07;97.86;96890.88;6100029;23;20618;-83
2022/01/17 01:05:50;;;;;;;27.27;17.17;;;;;;;-0.10;97.77;96896.06;6056870;23;20191;-80
2022/01/17 01:08:15;;;;;;;23.73;15.60;;;;;;;-0.08;97.71;96895.13;6104662;23;20181;-81
2022/01/17 01:10:40;;;;;;;24.93;16.47;;;;;;;-0.08;97.74;96909.63;6103962;23;20238;-81
2022/01/17 01:13:06;;;;;;;28.20;17.43;;;;;;;-0.13;97.74;96921.69;6103318;23;20159;-79
2022/01/17 01:18:29;;;;;;;29.43;18.70;;;;;;;-0.10;98.12;96913.94;6082428;23;20187;-81
2022/01/17 01:21:21;;;;;;;30.93;18.53;;;;;;;-0.12;97.89;96908.88;6060869;23;20155;-82
2022/01/17 01:29:14;;;;;;;29.77;18.03;;;;;;;-0.04;98.37;96903.53;6120311;23;20311;-81
2022/01/17 01:31:45;;;;;;;27.73;16.93;;;;;;;-0.09;98.22;96906.25;6098941;23;20610;-82
2022/01/17 01:34:12;;;;;;;29.03;17.90;;;;;;;-0.04;97.96;96906.91;6098166;23;20152;-82
2022/01/17 01:36:38;;;;;;;27.37;16.73;;;;;;;-0.08;98.33;96919.84;6051906;23;20174;-82
2022/01/17 01:39:05;;;;;;;25.57;14.43;;;;;;;-0.02;98.41;96900.03;6097702;23;20519;-81
2022/01/17 01:41:41;;;;;;;21.67;15.00;;;;;;;-0.02;98.41;96899.19;6050161;23;20168;-83
2022/01/17 01:44:14;;;;;;;25.07;15.63;;;;;;;0.01;98.32;96905.94;6051926;23;20152;-82
2022/01/17 01:46:40;;;;;;;24.37;16.33;;;;;;;0.06;97.97;96910.00;6100216;23;20204;-80
2022/01/17 01:49:05;;;;;;;25.70;15.70;;;;;;;0.05;98.07;96902.38;6124800;23;20255;-81
2022/01/17 01:51:31;;;;;;;24.03;14.57;;;;;;;0.06;97.82;96910.00;6050770;23;20183;-81
2022/01/17 01:53:56;;;;;;;24.33;14.83;;;;;;;0.09;97.84;96901.38;6075249;23;20174;-81
2022/01/17 01:56:21;;;;;;;21.50;14.27;;;;;;;0.08;98.67;96892.88;6075214;23;20153;-81
2022/01/17 01:58:46;;;;;;;23.33;14.73;;;;;;;0.11;98.06;96885.16;6098471;23;20191;-83
2022/01/17 02:01:12;;;;;;;24.90;15.20;;;;;;;0.08;98.61;96887.78;6098020;23;20160;-81
2022/01/17 02:03:37;;;;;;;20.27;13.93;;;;;;;0.09;99.16;96894.59;6099410;23;20172;-82
2022/01/17 02:06:02;;;;;;;24.17;13.97;;;;;;;0.09;99.09;96892.03;6098604;23;20546;-79
2022/01/17 02:08:30;;;;;;;21.20;14.63;;;;;;;0.08;99.89;96895.44;6123043;23;20630;-80
2022/01/17 02:10:55;;;;;;;18.60;12.47;;;;;;;0.08;100.00;96882.66;6052382;23;20168;-81
2022/01/17 02:13:21;;;;;;;19.70;12.70;;;;;;;0.14;100.00;96877.38;6121904;23;20156;-82
2022/01/17 02:15:47;;;;;;;19.70;13.33;;;;;;;0.17;99.97;96878.97;6100190;23;20195;-81
2022/01/17 02:18:19;;;;;;;22.80;14.47;;;;;;;0.16;100.00;96893.47;6127745;23;20179;-82
2022/01/17 02:20:58;;;;;;;19.63;13.23;;;;;;;0.18;99.88;96881.50;6103617;23;20149;-80
2022/01/17 02:23:24;;;;;;;21.23;12.77;;;;;;;0.20;100.00;96884.84;6082616;23;20235;-79
2022/01/17 02:25:50;;;;;;;21.23;12.90;;;;;;;0.21;100.00;96881.38;6104760;23;20459;-81
2022/01/17 02:28:15;;;;;;;21.83;14.57;;;;;;;0.19;100.00;96882.34;6103277;23;20190;-80
2022/01/17 02:30:40;;;;;;;20.93;13.57;;;;;;;0.18;100.00;96875.56;6103277;23;20643;-81
2022/01/17 02:33:06;;;;;;;21.37;13.90;;;;;;;0.22;100.00;96867.72;6102316;23;20171;-80
2022/01/17 02:35:31;;;;;;;20.80;12.57;;;;;;;0.24;100.00;96880.44;6055909;23;20219;-79
2022/01/17 02:37:57;;;;;;;20.70;12.63;;;;;;;0.26;100.00;96886.31;6101613;23;20640;-80
2022/01/17 02:40:24;;;;;;;22.27;13.23;;;;;;;0.23;100.00;96889.81;6080393;23;20178;-81
2022/01/17 02:42:55;;;;;;;22.43;12.53;;;;;;;0.31;100.00;96891.28;6054966;23;20171;-80
2022/01/17 02:45:36;;;;;;;17.23;11.07;;;;;;;0.28;100.00;96887.13;6102745;23;20525;-81
2022/01/17 02:48:08;;;;;;;18.73;11.03;;;;;;;0.38;100.00;96895.31;6100174;23;20187;-79
2022/01/17 02:50:35;;;;;;;18.40;11.67;;;;;;;0.34;100.00;96896.28;6051694;23;20155;-80
2022/01/17 02:53:08;;;;;;;18.10;11.67;;;;;;;0.36;100.00;96891.97;6102125;23;20223;-81
2022/01/17 02:55:33;;;;;;;18.43;11.67;;;;;;;0.37;100.00;96893.66;6101769;23;20581;-81
2022/01/17 02:57:58;;;;;;;18.03;11.23;;;;;;;0.44;100.00;96884.84;6098264;23;20233;-80
2022/01/17 03:00:24;;;;;;;16.83;11.57;;;;;;;0.46;100.00;96889.06;6098261;23;20555;-80
2022/01/17 03:02:49;;;;;;;18.90;11.50;;;;;;;0.45;100.00;96889.09;6119342;23;20176;-82
2022/01/17 03:05:19;;;;;;;19.60;10.80;;;;;;;0.42;100.00;96895.13;6095853;23;20191;-79
2022/01/17 03:07:45;;;;;;;15.87;10.67;;;;;;;0.43;100.00;96898.53;6120979;23;20719;-79
2022/01/17 03:10:21;;;;;;;15.83;10.07;;;;;;;0.43;100.00;96896.81;6120011;23;20561;-82
2022/01/17 03:12:47;;;;;;;15.93;9.57;;;;;;;0.50;100.00;96894.88;6075991;23;20168;-79
2022/01/17 03:15:13;;;;;;;17.23;10.07;;;;;;;0.52;100.00;96893.09;6097756;23;20190;-80
2022/01/17 03:17:39;;;;;;;13.57;9.13;;;;;;;0.53;100.00;96885.41;6120347;23;20199;-82
2022/01/17 03:20:04;;;;;;;14.10;9.13;;;;;;;0.52;100.00;96890.53;6120404;23;20159;-78
2022/01/17 03:22:30;;;;;;;16.67;10.00;;;;;;;0.53;100.00;96880.28;6097570;23;20167;-81
2022/01/17 03:24:55;;;;;;;12.83;8.67;;;;;;;0.57;100.00;96875.88;6072643;23;20175;-82
2022/01/17 03:27:20;;;;;;;15.37;9.37;;;;;;;0.59;100.00;96884.31;6095455;23;20650;-81
2022/01/17 03:29:46;;;;;;;11.37;8.40;;;;;;;0.56;100.00;96879.34;6072700;23;20160;-79
2022/01/17 03:32:11;;;;;;;14.83;8.43;;;;;;;0.54;100.00;96869.16;6095251;23;20168;-78
2022/01/17 03:34:38;;;;;;;16.33;8.73;;;;;;;0.56;100.00;96872.50;6095418;23;20521;-81
2022/01/17 03:37:03;;;;;;;11.70;8.20;;;;;;;0.61;100.00;96872.31;6095531;23;20250;-81
2022/01/17 03:39:28;;;;;;;14.37;8.37;;;;;;;0.56;100.00;96872.50;6118442;23;20457;-83
2022/01/17 03:41:54;;;;;;;14.50;8.87;;;;;;;0.59;100.00;96876.66;6095305;23;20164;-81
2022/01/17 03:44:19;;;;;;;13.20;8.90;;;;;;;0.59;100.00;96891.16;6096444;23;20500;-82
2022/01/17 03:46:44;;;;;;;12.83;9.20;;;;;;;0.54;100.00;96909.22;6096676;23;20244;-80
2022/01/17 03:49:10;;;;;;;14.70;9.83;;;;;;;0.60;100.00;96903.06;6074215;23;20648;-81
2022/01/17 03:51:35;;;;;;;13.50;9.33;;;;;;;0.50;100.00;96917.88;6120109;23;20163;-81
2022/01/17 03:54:00;;;;;;;16.93;9.27;;;;;;;0.46;100.00;96922.28;6121485;23;20175;-81
2022/01/17 03:56:26;;;;;;;17.67;10.63;;;;;;;0.44;100.00;96923.19;6102756;23;20408;-81
2022/01/17 03:58:51;;;;;;;17.10;10.73;;;;;;;0.37;100.00;96912.38;6123802;23;20178;-82
2022/01/17 04:01:17;;;;;;;18.00;10.50;;;;;;;0.38;100.00;96913.19;6124604;23;20583;-82
2022/01/17 04:03:42;;;;;;;18.83;10.80;;;;;;;0.34;100.00;96912.44;6099883;23;20179;-82
2022/01/17 04:06:08;;;;;;;19.47;10.70;;;;;;;0.37;100.00;96906.44;6099503;23;20184;-81
2022/01/17 04:08:34;;;;;;;16.47;10.60;;;;;;;0.35;100.00;96913.28;6123156;23;20235;-80
2022/01/17 04:10:59;;;;;;;18.93;11.33;;;;;;;0.33;100.00;96927.84;6099055;23;20161;-82
2022/01/17 04:13:25;;;;;;;17.10;10.70;;;;;;;0.33;100.00;96925.28;6124729;23;20215;-79
2022/01/17 04:15:50;;;;;;;17.57;11.40;;;;;;;0.33;100.00;96920.19;6076158;23;20501;-82
2022/01/17 04:18:19;;;;;;;15.53;10.43;;;;;;;0.34;100.00;96914.19;6102452;23;20179;-81
2022/01/17 04:20:45;;;;;;;14.70;10.47;;;;;;;0.36;100.00;96909.88;6099300;23;20165;-81
2022/01/17 04:23:11;;;;;;;16.93;10.57;;;;;;;0.33;100.00;96899.72;6100901;23;20170;-81
2022/01/17 04:25:38;;;;;;;16.40;10.13;;;;;;;0.35;100.00;96892.84;6097775;23;20191;-81
2022/01/17 04:28:05;;;;;;;16.50;10.30;;;;;;;0.38;100.00;96895.31;6051866;23;20176;-81
2022/01/17 04:30:30;;;;;;;16.73;9.37;;;;;;;0.34;100.00;96889.47;6099960;23;20161;-80
2022/01/17 04:32:57;;;;;;;16.07;10.07;;;;;;;0.34;100.00;96883.50;6099439;23;20163;-81
2022/01/17 04:35:24;;;;;;;15.43;9.57;;;;;;;0.38;100.00;96882.53;6075362;23;20182;-83
2022/01/17 04:37:58;;;;;;;14.13;9.43;;;;;;;0.42;100.00;96889.19;6099714;23;20175;-81
2022/01/17 04:40:24;;;;;;;14.23;8.87;;;;;;;0.40;100.00;96889.25;6077871;23;20141;-81
2022/01/17 04:42:53;;;;;;;14.53;8.83;;;;;;;0.35;100.00;96897.97;6050946;23;20170;-81
2022/01/17 04:45:20;;;;;;;13.83;9.60;;;;;;;0.31;100.00;96907.47;6097664;23;20164;-81
2022/01/17 04:47:47;;;;;;;15.13;9.60;;;;;;;0.35;100.00;96924.34;6123178;23;20191;-82
2022/01/17 04:50:15;;;;;;;14.80;8.83;;;;;;;0.38;100.00;96929.38;6075672;23;20492;-80
2022/01/17 04:52:42;;;;;;;13.60;9.20;;;;;;;0.48;100.00;96919.66;6050611;23;20159;-82
2022/01/17 04:55:09;;;;;;;12.27;8.10;;;;;;;0.38;100.00;96908.94;6123108;23;20235;-81
2022/01/17 04:57:36;;;;;;;11.00;7.80;;;;;;;0.42;100.00;96901.97;6123995;23;20176;-81
2022/01/17 05:00:03;;;;;;;13.37;9.17;;;;;;;0.43;100.00;96906.19;6099075;23;20175;-81
2022/01/17 05:02:29;;;;;;;14.43;8.73;;;;;;;0.39;100.00;96909.75;6050669;23;20212;-81
2022/01/17 05:04:54;;;;;;;12.27;8.17;;;;;;;0.44;100.00;96905.31;6122993;23;20163;-81
2022/01/17 05:07:19;;;;;;;13.53;8.63;;;;;;;0.43;100.00;96907.03;6123248;23;20199;-80
2022/01/17 05:09:46;;;;;;;12.13;8.47;;;;;;;0.41;100.00;96902.88;6123865;23;20247;-81
2022/01/17 05:12:12;;;;;;;15.30;8.37;;;;;;;0.46;100.00;96916.34;6097504;23;20167;-80
2022/01/17 05:14:41;;;;;;;12.17;7.83;;;;;;;0.49;100.00;96909.38;6122642;23;20162;-81
2022/01/17 05:17:34;;;;;;;11.20;8.10;;;;;;;0.45;100.00;96912.09;6098203;23;20159;-80
2022/01/17 05:19:59;;;;;;;11.23;8.30;;;;;;;0.43;100.00;96916.41;6099451;23;20164;-79
2022/01/17 05:22:31;;;;;;;10.33;7.60;;;;;;;0.45;100.00;96912.94;6098840;23;20393;-81
2022/01/17 05:24:58;;;;;;;10.07;7.60;;;;;;;0.51;100.00;96915.25;6122272;23;20171;-80
2022/01/17 05:27:23;;;;;;;10.10;6.77;;;;;;;0.49;100.00;96923.88;6099404;23;20192;-80
2022/01/17 05:29:49;;;;;;;11.17;7.30;;;;;;;0.49;100.00;96917.06;6050952;23;20172;-80
2022/01/17 05:32:15;;;;;;;12.00;8.23;;;;;;;0.51;100.00;96915.25;6093023;23;20172;-80
2022/01/17 05:34:41;;;;;;;11.73;8.53;;;;;;;0.45;100.00;96912.09;6096711;23;20580;-78
2022/01/17 05:37:12;;;;;;;9.93;7.27;;;;;;;0.51;100.00;96915.25;6070898;23;20152;-78
2022/01/17 05:39:37;;;;;;;11.17;8.33;;;;;;;0.49;100.00;96917.06;6094576;23;20839;-80
2022/01/17 05:42:04;;;;;;;10.00;7.47;;;;;;;0.46;100.00;96912.06;6067338;23;20156;-80
2022/01/17 05:44:29;;;;;;;11.40;8.03;;;;;;;0.49;100.00;96906.00;6096949;23;20638;-81
2022/01/17 05:46:54;;;;;;;11.37;7.70;;;;;;;0.49;100.00;96900.88;6097388;23;20252;-80
2022/01/17 05:49:20;;;;;;;12.87;8.20;;;;;;;0.47;100.00;96897.56;6095113;23;20183;-79
2022/01/17 05:51:45;;;;;;;12.03;8.23;;;;;;;0.50;100.00;96889.75;6120699;23;20179;-81
2022/01/17 05:54:10;;;;;;;11.50;7.10;;;;;;;0.49;100.00;96890.66;6119939;23;20157;-81
2022/01/17 05:56:35;;;;;;;10.30;7.07;;;;;;;0.57;100.00;96898.91;6120230;23;20187;-80
2022/01/17 05:59:01;;;;;;;11.37;8.37;;;;;;;0.52;100.00;96905.88;6097074;23;20187;-79
2022/01/17 06:01:26;;;;;;;11.97;7.80;;;;;;;0.51;100.00;96904.22;6096535;23;20219;-80
2022/01/17 06:03:51;;;;;;;9.73;7.63;;;;;;;0.55;100.00;96898.13;6097442;23;20187;-80
2022/01/17 06:06:17;;;;;;;9.40;6.97;;;;;;;0.58;100.00;96895.44;6097691;23;20190;-83
2022/01/17 06:08:42;;;;;;;10.57;7.40;;;;;;;0.60;100.00;96896.22;6096831;23;20188;-79
2022/01/17 06:11:08;;;;;;;12.50;7.80;;;;;;;0.58;100.00;96900.56;6094362;23;20162;-78
2022/01/17 06:13:33;;;;;;;13.27;8.23;;;;;;;0.62;100.00;96904.69;6095200;23;20192;-78
2022/01/17 06:15:59;;;;;;;12.07;8.43;;;;;;;0.62;100.00;96908.94;6097532;23;20203;-81
2022/01/17 06:18:24;;;;;;;10.90;7.33;;;;;;;0.54;100.00;96911.78;6072670;23;20231;-80
2022/01/17 06:20:49;;;;;;;13.97;8.77;;;;;;;0.55;100.00;96921.13;6096618;23;20167;-81
2022/01/17 06:23:15;;;;;;;10.33;7.57;;;;;;;0.55;100.00;96921.97;6121271;23;20164;-80
2022/01/17 06:25:40;;;;;;;11.27;7.27;;;;;;;0.60;100.00;96926.06;6097454;23;20164;-81
2022/01/17 06:28:05;;;;;;;13.63;8.07;;;;;;;0.62;100.00;96922.59;6097721;23;20191;-80
2022/01/17 06:30:31;;;;;;;10.00;7.53;;;;;;;0.58;100.00;96926.13;6095828;23;20195;-82
2022/01/17 06:32:56;;;;;;;9.13;6.50;;;;;;;0.63;100.00;96944.69;6119810;23;20155;-79
2022/01/17 06:35:22;;;;;;;9.43;6.20;;;;;;;0.60;100.00;96942.22;6096147;23;20602;-79
2022/01/17 06:37:48;;;;;;;9.90;6.93;;;;;;;0.54;100.00;96940.75;6073818;23;20183;-80
2022/01/17 06:40:14;;;;;;;7.87;6.37;;;;;;;0.60;100.00;96955.00;6121341;23;20160;-79
2022/01/17 06:42:39;;;;;;;8.93;6.43;;;;;;;0.57;100.00;96962.81;6120321;23;20166;-79
2022/01/17 06:45:06;;;;;;;7.97;6.27;;;;;;;0.60;100.00;96949.91;6095643;23;20168;-81
2022/01/17 06:47:35;;;;;;;8.40;5.67;;;;;;;0.52;100.00;96964.66;6070577;23;20263;-80
2022/01/17 06:50:04;;;;;;;11.23;7.13;;;;;;;0.67;100.00;96966.72;6070625;23;20156;-80
2022/01/17 06:52:30;;;;;;;9.97;5.50;;;;;;;0.60;100.00;96955.00;6047768;23;20168;-80
2022/01/17 06:54:55;;;;;;;7.97;6.07;;;;;;;0.64;100.00;96971.09;6095864;23;20165;-82
2022/01/17 06:57:22;;;;;;;8.00;6.43;;;;;;;0.65;100.00;96965.94;6095450;23;20180;-81
2022/01/17 06:59:48;;;;;;;10.10;7.00;;;;;;;0.60;100.00;96972.91;6049504;23;20218;-81
2022/01/17 07:02:13;;;;;;;8.93;6.83;;;;;;;0.58;100.00;96987.47;6050558;23;20172;-81
2022/01/17 07:04:38;;;;;;;9.37;6.73;;;;;;;0.54;100.00;96981.63;6075749;23;20140;-82
2022/01/17 07:07:04;;;;;;;10.50;7.03;;;;;;;0.59;100.00;96978.91;6101102;23;20187;-82
2022/01/17 07:09:29;;;;;;;10.17;7.50;;;;;;;0.57;100.00;96978.97;6100485;23;20528;-80
2022/01/17 07:11:58;;;;;;;8.77;6.60;;;;;;;0.63;100.00;96998.38;6099861;23;20164;-81
2022/01/17 07:14:25;;;;;;;8.30;6.03;;;;;;;0.59;100.00;96999.38;6103350;23;20167;-82
2022/01/17 07:16:50;;;;;;;8.87;6.73;;;;;;;0.57;100.00;97004.53;6101934;23;20593;-81
2022/01/17 07:19:15;;;;;;;8.50;6.03;;;;;;;0.57;100.00;97007.09;6100217;23;20191;-82
2022/01/17 07:21:41;;;;;;;8.97;6.40;;;;;;;0.53;100.00;97002.13;6099691;23;20168;-81
2022/01/17 07:24:06;;;;;;;8.10;6.10;;;;;;;0.64;100.00;97017.13;6102005;23;20231;-81
2022/01/17 07:26:32;;;;;;;9.03;5.27;;;;;;;0.68;100.00;97036.56;6098299;23;20247;-83
2022/01/17 07:28:57;;;;;;;6.83;5.13;;;;;;;0.66;100.00;97039.19;6118969;23;20208;-82
2022/01/17 07:31:22;;;;;;;7.67;5.90;;;;;;;0.68;100.00;97031.47;6118437;23;20168;-82
2022/01/17 07:33:48;;;;;;;6.60;5.10;;;;;;;0.70;100.00;97027.94;6094256;23;20160;-82
2022/01/17 07:36:18;;;;;;;6.70;5.47;;;;;;;0.72;100.00;97003.19;6095521;23;20159;-81
2022/01/17 07:38:43;;;;;;;7.80;5.17;;;;;;;0.76;100.00;96989.41;6093723;23;20185;-82
2022/01/17 07:41:09;;;;;;;7.23;5.23;;;;;;;0.71;100.00;96993.03;6069959;23;20564;-82
2022/01/17 07:43:36;;;;;;;7.13;5.20;;;;;;;0.68;100.00;96988.00;6094291;23;20179;-82
2022/01/17 07:46:49;;;;;;;7.03;4.53;;;;;;;0.68;100.00;96993.09;6094434;23;20224;-82
2022/01/17 07:51:31;;;;;;;6.33;4.63;;;;;;;0.80;100.00;97016.56;6114779;23;20159;-80
2022/01/17 07:53:57;;;;;;;9.93;5.43;;;;;;;0.77;100.00;97014.06;6048253;23;20160;-83
2022/01/17 07:56:23;;;;;;;5.93;4.70;;;;;;;0.83;100.00;97016.44;6048261;23;20187;-81
2022/01/17 07:58:49;;;;;;;6.73;5.33;;;;;;;0.84;100.00;97020.66;6119771;23;20186;-81
2022/01/17 08:01:14;;;;;;;6.30;4.70;;;;;;;0.81;100.00;97020.78;6095822;23;20172;-81
2022/01/17 08:03:40;;;;;;;7.67;4.80;;;;;;;0.89;100.00;97009.44;6121382;23;20155;-81
2022/01/17 08:06:05;;;;;;;5.90;4.47;;;;;;;1.03;99.68;97022.59;6119942;23;20176;-81
2022/01/17 08:08:31;;;;;;;6.83;5.10;;;;;;;1.04;99.33;97031.91;6095616;23;20188;-83
2022/01/17 08:10:56;;;;;;;6.90;5.10;;;;;;;1.04;98.65;97039.59;6072269;23;20170;-81
2022/01/17 08:13:22;;;;;;;5.33;4.20;;;;;;;1.14;98.64;97041.78;6119397;23;20423;-83
2022/01/17 08:15:48;;;;;;;4.67;4.13;;;;;;;1.21;98.17;97044.97;6048094;23;20172;-82
2022/01/17 08:18:14;;;;;;;6.57;4.47;;;;;;;1.20;97.91;97052.69;6047388;23;20188;-83
2022/01/17 08:20:40;;;;;;;6.53;4.63;;;;;;;1.29;97.60;97067.72;6046592;23;20166;-81
2022/01/17 08:23:05;;;;;;;6.23;4.50;;;;;;;1.27;97.59;97069.50;6070263;23;20160;-82
2022/01/17 08:25:31;;;;;;;6.47;4.13;;;;;;;1.33;97.30;97072.69;6094257;23;20255;-81
2022/01/17 08:27:57;;;;;;;6.03;4.10;;;;;;;1.27;97.69;97069.50;6070422;23;20187;-81
2022/01/17 08:30:23;;;;;;;6.13;4.40;;;;;;;1.30;97.27;97057.44;6119001;23;20153;-81
2022/01/17 08:32:48;;;;;;;5.97;4.27;;;;;;;1.36;97.37;97054.66;6093739;23;20160;-83
2022/01/17 08:35:14;;;;;;;6.37;4.43;;;;;;;1.30;97.66;97049.75;6071704;23;20141;-82
2022/01/17 08:37:39;;;;;;;4.33;3.93;;;;;;;1.36;97.61;97036.75;6095531;23;20177;-82
2022/01/17 08:40:06;;;;;;;5.43;3.97;;;;;;;1.53;97.18;97042.97;6120290;23;20504;-82
2022/01/17 08:42:33;;;;;;;5.57;4.37;;;;;;;1.67;96.56;97045.84;6070330;23;20161;-80
2022/01/17 08:44:59;;;;;;;4.63;3.97;;;;;;;1.66;96.28;97039.06;6071334;23;20160;-81
2022/01/17 08:47:24;;;;;;;4.43;3.43;;;;;;;1.56;96.44;97035.19;6094206;23;20203;-80
2022/01/17 08:49:50;;;;;;;6.00;3.60;;;;;;;1.76;96.55;97024.19;6094569;23;20479;-80
2022/01/17 08:52:17;;;;;;;6.83;4.27;;;;;;;1.82;96.44;97027.34;6094701;23;20186;-80
2022/01/17 08:54:43;;;;;;;6.57;3.10;;;;;;;1.69;96.26;97032.13;6095999;23;20167;-81
2022/01/17 08:57:09;;;;;;;4.83;4.03;;;;;;;1.85;95.96;97032.34;6095464;23;20168;-80
2022/01/17 08:59:34;;;;;;;4.73;4.00;;;;;;;1.94;95.24;97032.03;6095519;23;20165;-81
2022/01/17 09:02:00;;;;;;;5.10;3.70;;;;;;;2.12;94.76;97050.13;6072786;23;20617;-80
2022/01/17 09:04:25;;;;;;;4.37;3.40;;;;;;;2.16;94.18;97037.16;6096641;23;20160;-80
2022/01/17 09:06:50;;;;;;;3.80;3.13;;;;;;;2.11;93.27;97046.72;6096570;23;20187;-80
2022/01/17 09:09:16;;;;;;;3.43;3.13;;;;;;;2.42;93.54;97063.50;6072499;23;20179;-82
2022/01/17 09:11:42;;;;;;;4.20;2.70;;;;;;;2.62;92.92;97065.25;6072475;23;20161;-80
2022/01/17 09:14:08;;;;;;;3.93;3.03;;;;;;;2.75;92.28;97069.81;6048832;23;20219;-82
2022/01/17 09:16:33;;;;;;;3.90;3.17;;;;;;;2.63;91.76;97067.75;6096281;23;20156;-79
2022/01/17 09:19:00;;;;;;;3.40;2.97;;;;;;;2.82;91.38;97052.44;6120432;23;20180;-79
2022/01/17 09:21:25;;;;;;;3.43;3.07;;;;;;;2.88;91.26;97041.91;6095422;23;20164;-79
2022/01/17 09:23:58;;;;;;;4.40;2.80;;;;;;;3.00;89.83;97045.69;6096665;23;20483;-84
2022/01/17 09:26:25;;;;;;;5.27;3.50;;;;;;;3.28;89.52;97050.50;6065265;23;20180;-81
2022/01/17 09:28:51;;;;;;;3.90;2.97;;;;;;;3.31;89.18;97055.50;6072283;23;20639;-82
2022/01/17 09:31:17;;;;;;;4.13;2.50;;;;;;;3.51;87.48;97068.28;6095404;23;20188;-81
2022/01/17 09:33:45;;;;;;;10.37;6.37;;;;;;;3.51;86.26;97076.00;6094882;23;20212;-82
2022/01/17 09:36:13;;;;;;;4.40;2.23;;;;;;;3.56;85.59;97070.69;6047391;23;20161;-83
2022/01/17 09:38:39;;;;;;;3.13;2.47;;;;;;;3.42;85.79;97089.25;6047290;23;20259;-81
2022/01/17 09:41:09;;;;;;;3.47;2.30;;;;;;;3.42;85.52;97100.34;6048890;23;20153;-85
2022/01/17 09:43:35;;;;;;;2.70;2.50;;;;;;;3.45;85.38;97085.72;6048694;23;20164;-83
2022/01/17 09:46:01;;;;;;;3.47;2.70;;;;;;;3.28;86.22;97091.59;6096054;23;20184;-84
2022/01/17 09:48:35;;;;;;;3.03;2.30;;;;;;;3.23;86.30;97093.50;6072359;23;20646;-81
2022/01/17 09:51:37;;;;;;;4.53;3.00;;;;;;;3.38;85.70;97090.28;6074616;23;20143;-81
2022/01/17 09:54:07;;;;;;;3.20;2.40;;;;;;;3.20;86.52;97107.31;6118015;23;20142;-83
2022/01/17 09:56:33;;;;;;;7.27;4.70;;;;;;;3.16;86.60;97115.19;6119574;23;20662;-83
2022/01/17 09:58:58;;;;;;;8.27;5.17;;;;;;;3.19;86.89;97108.22;6098645;23;20196;-83
2022/01/17 10:01:27;;;;;;;6.13;3.83;;;;;;;3.24;87.05;97119.09;6097378;23;20208;-83
2022/01/17 10:03:56;;;;;;;5.43;2.87;;;;;;;3.11;86.84;97125.66;6049479;23;20160;-81
2022/01/17 10:06:24;;;;;;;4.43;3.47;;;;;;;3.15;86.74;97106.66;6051538;23;20211;-82
2022/01/17 10:09:21;;;;;;;4.97;3.17;;;;;;;3.04;87.56;97122.50;6075019;23;20179;-83
2022/01/17 10:12:12;;;;;;;5.93;3.60;;;;;;;3.09;87.92;97118.03;6046812;23;20181;-81
2022/01/17 10:14:43;;;;;;;4.90;3.67;;;;;;;2.84;88.97;97122.50;6093843;23;20666;-81
2022/01/17 10:17:12;;;;;;;16.90;10.23;;;;;;;3.04;88.86;97125.06;6070941;23;20614;-83
2022/01/17 10:19:39;;;;;;;8.77;5.80;;;;;;;3.04;89.42;97126.81;6046625;23;20642;-82
2022/01/17 10:22:19;;;;;;;4.90;3.60;;;;;;;3.17;88.88;97106.59;6070840;23;20160;-80
2022/01/17 10:27:28;;;;;;;4.03;2.93;;;;;;;3.38;88.25;97105.69;6122647;23;20181;-80
2022/01/17 10:35:36;;;;;;;2.97;2.37;;;;;;;3.70;86.93;97123.09;6119514;23;20536;-81
2022/01/17 10:38:16;;;;;;;2.33;2.13;;;;;;;3.71;87.04;97121.38;6096097;23;20173;-79
2022/01/17 10:40:45;;;;;;;2.90;2.37;;;;;;;3.60;86.67;97119.25;6075669;23;20147;-81
2022/01/17 10:43:34;;;;;;;3.40;1.97;;;;;;;3.08;88.18;97136.88;6050403;23;20166;-81
2022/01/17 10:46:00;;;;;;;2.37;2.10;;;;;;;3.15;87.78;97136.63;6076123;23;20138;-80
2022/01/17 10:48:30;;;;;;;2.63;2.07;;;;;;;2.98;88.43;97139.88;6075242;23;20186;-81
2022/01/17 10:50:55;;;;;;;2.47;2.27;;;;;;;2.77;89.39;97150.13;6101639;23;20148;-81
2022/01/17 10:53:21;;;;;;;3.13;2.57;;;;;;;2.61;90.32;97156.75;6097460;23;20157;-82
2022/01/17 10:55:52;;;;;;;2.77;2.57;;;;;;;2.53;90.79;97156.22;6097213;23;20161;-81
2022/01/17 10:58:25;;;;;;;4.37;2.40;;;;;;;2.42;91.28;97172.00;6072499;23;20180;-81
2022/01/17 11:00:54;;;;;;;3.43;2.73;;;;;;;2.35;92.27;97175.69;6121369;23;20159;-81
2022/01/17 11:03:23;;;;;;;5.43;3.17;;;;;;;2.15;93.71;97176.44;6074498;23;20240;-80
2022/01/17 11:05:52;;;;;;;5.73;4.90;;;;;;;2.06;93.69;97171.66;6047549;23;20165;-79
2022/01/17 11:08:19;;;;;;;3.80;3.23;;;;;;;2.15;93.84;97161.06;6096496;23;20187;-83
2022/01/17 11:10:46;;;;;;;3.97;3.60;;;;;;;2.11;94.36;97151.81;6095417;23;20182;-82
2022/01/17 11:13:14;;;;;;;5.70;3.67;;;;;;;2.12;94.37;97150.06;6093891;23;20160;-83
2022/01/17 11:15:40;;;;;;;4.80;4.33;;;;;;;1.92;95.18;97154.22;6095384;23;20152;-82
2022/01/17 11:18:16;;;;;;;4.50;3.83;;;;;;;1.88;96.11;97155.22;6070541;23;20176;-80
2022/01/17 11:20:42;;;;;;;4.83;4.40;;;;;;;1.80;96.76;97164.91;6093782;23;20156;-82
2022/01/17 11:23:07;;;;;;;6.00;4.27;;;;;;;1.88;96.31;97162.06;6047699;23;20549;-81
2022/01/17 11:25:36;;;;;;;5.07;4.57;;;;;;;1.76;97.44;97160.75;6096447;23;20180;-82
2022/01/17 11:28:04;;;;;;;6.33;4.80;;;;;;;1.92;97.06;97179.00;6072743;23;20224;-82
2022/01/17 11:30:30;;;;;;;5.77;4.63;;;;;;;2.01;97.00;97172.69;6048806;23;20172;-82
2022/01/17 11:32:56;;;;;;;5.60;4.87;;;;;;;1.98;97.60;97176.22;6121084;23;20160;-80
2022/01/17 11:35:23;;;;;;;5.60;4.90;;;;;;;1.89;97.21;97171.44;6096007;23;20165;-80
2022/01/17 11:38:00;;;;;;;6.77;5.73;;;;;;;1.92;97.57;97174.69;6097098;23;20216;-81
2022/01/17 11:40:34;;;;;;;8.43;6.00;;;;;;;1.91;97.48;97167.91;6047673;23;20156;-80
2022/01/17 11:43:01;;;;;;;6.40;5.80;;;;;;;1.92;98.22;97174.69;6096814;23;20184;-79
2022/01/17 11:45:33;;;;;;;7.43;5.80;;;;;;;1.98;97.74;97171.94;6119474;23;20638;-82
2022/01/17 11:48:07;;;;;;;7.83;5.80;;;;;;;1.93;97.53;97158.44;6048983;23;20200;-82
2022/01/17 11:50:33;;;;;;;6.73;5.77;;;;;;;2.01;97.77;97153.03;6071155;23;20186;-80